createdAt,value
2023-04-03T00:01:23.392Z,60.97
2023-04-03T00:03:52.903Z,60.92
2023-04-03T00:06:21.433Z,61.44
2023-04-03T00:08:51.827Z,61.74
2023-04-03T00:11:21.592Z,61.57
2023-04-03T00:13:50.503Z,61.84
2023-04-03T00:16:19.559Z,62.33
2023-04-03T00:18:48.146Z,62.50
2023-04-03T00:21:16.670Z,62.31
2023-04-03T00:23:44.914Z,62.10
2023-04-03T00:26:14.677Z,62.01
2023-04-03T00:28:42.966Z,62.38
2023-04-03T00:31:12.309Z,62.63
2023-04-03T00:33:40.515Z,62.61
2023-04-03T00:36:10.477Z,62.98
2023-04-03T00:38:38.924Z,63.12
2023-04-03T00:41:07.872Z,63.95
2023-04-03T00:43:37.516Z,63.95
2023-04-03T00:46:06.915Z,64.19
2023-04-03T00:48:38.486Z,64.34
2023-04-03T00:51:09.752Z,63.92
2023-04-03T00:53:42.283Z,64.39
2023-04-03T00:56:14.996Z,64.69
2023-04-03T00:58:49.141Z,64.98
2023-04-03T01:01:22.990Z,65.22
2023-04-03T01:03:51.389Z,65.67
2023-04-03T01:06:22.668Z,65.90
2023-04-03T01:08:52.242Z,65.83
2023-04-03T01:11:21.805Z,66.71
2023-04-03T01:13:51.500Z,66.82
2023-04-03T01:16:20.694Z,66.71
2023-04-03T01:18:50.317Z,67.03
2023-04-03T01:22:04.565Z,67.28
2023-04-03T01:24:40.541Z,67.33
2023-04-03T01:27:11.908Z,67.20
2023-04-03T01:29:44.602Z,67.14
2023-04-03T01:32:14.426Z,67.22
2023-04-03T01:34:42.599Z,66.49
2023-04-03T01:37:10.691Z,66.15
2023-04-03T01:39:38.817Z,65.38
2023-04-03T01:42:07.652Z,65.74
2023-04-03T01:44:35.846Z,66.01
2023-04-03T01:47:04.091Z,66.25
2023-04-03T01:49:33.660Z,66.18
2023-04-03T01:52:01.928Z,66.16
2023-04-03T01:54:30.039Z,66.21
2023-04-03T01:56:58.442Z,66.80
2023-04-03T01:59:26.952Z,67.66
2023-04-03T02:01:55.191Z,68.30
2023-04-03T02:04:23.514Z,68.75
2023-04-03T02:06:53.187Z,68.96
2023-04-03T02:09:21.662Z,69.13
2023-04-03T02:11:50.379Z,68.83
2023-04-03T02:14:20.697Z,68.76
2023-04-03T02:16:49.074Z,69.19
2023-04-03T02:19:17.422Z,68.97
2023-04-03T02:21:46.596Z,68.74
2023-04-03T02:24:16.180Z,68.60
2023-04-03T02:26:44.373Z,68.05
2023-04-03T02:29:12.617Z,68.37
2023-04-03T02:31:40.842Z,68.72
2023-04-03T02:34:09.047Z,69.09
2023-04-03T02:36:37.316Z,69.17
2023-04-03T02:39:06.407Z,69.38
2023-04-03T02:41:36.089Z,69.98
2023-04-03T02:44:04.940Z,70.06
2023-04-03T02:46:33.393Z,70.42
2023-04-03T02:49:01.626Z,70.75
2023-04-03T02:51:29.918Z,71.01
2023-04-03T02:53:58.066Z,71.17
2023-04-03T02:56:27.958Z,71.50
2023-04-03T02:58:57.546Z,71.65
2023-04-03T03:01:25.822Z,71.59
2023-04-03T03:03:53.855Z,72.08
2023-04-03T03:06:22.075Z,73.54
2023-04-03T03:08:50.214Z,73.88
2023-04-03T03:11:18.858Z,74.36
2023-04-03T03:13:47.077Z,74.37
2023-04-03T03:16:16.854Z,74.89
2023-04-03T03:18:45.014Z,75.00
2023-04-03T03:21:13.691Z,75.51
2023-04-03T03:23:42.037Z,76.08
2023-04-03T03:26:12.000Z,76.48
2023-04-03T03:28:41.419Z,77.07
2023-04-03T03:31:11.269Z,77.05
2023-04-03T03:33:41.030Z,78.52
2023-04-03T03:36:09.628Z,77.84
2023-04-03T03:38:37.858Z,78.12
2023-04-03T03:41:05.988Z,78.60
2023-04-03T03:43:34.192Z,78.49
2023-04-03T03:46:02.339Z,78.60
2023-04-03T03:48:30.638Z,79.68
2023-04-03T03:51:00.242Z,80.16
2023-04-03T03:53:28.345Z,80.20
2023-04-03T03:55:56.702Z,80.29
2023-04-03T03:58:24.906Z,81.29
2023-04-03T04:00:53.160Z,81.65
2023-04-03T04:03:22.220Z,81.67
2023-04-03T04:05:50.481Z,81.47
2023-04-03T04:08:20.067Z,81.94
2023-04-03T04:10:48.580Z,82.19
2023-04-03T04:13:17.478Z,81.83
2023-04-03T04:15:46.812Z,82.01
2023-04-03T04:18:15.107Z,82.01
2023-04-03T04:20:43.339Z,80.65
2023-04-03T04:23:11.930Z,80.00
2023-04-03T04:25:41.539Z,80.78
2023-04-03T04:28:11.167Z,80.78
2023-04-03T04:30:39.741Z,80.14
2023-04-03T04:33:08.129Z,79.64
2023-04-03T04:35:38.725Z,79.49
2023-04-03T04:38:07.820Z,78.91
2023-04-03T04:40:36.606Z,78.85
2023-04-03T04:43:06.630Z,78.63
2023-04-03T04:45:35.260Z,78.43
2023-04-03T04:48:03.912Z,77.82
2023-04-03T04:50:36.008Z,78.07
2023-04-03T04:53:06.293Z,78.11
2023-04-03T04:55:37.219Z,77.54
2023-04-03T04:58:07.158Z,77.32
2023-04-03T05:00:35.839Z,76.17
2023-04-03T05:03:04.067Z,75.40
2023-04-03T05:05:32.629Z,74.31
2023-04-03T05:08:01.114Z,73.63
2023-04-03T05:10:29.755Z,73.29
2023-04-03T05:12:58.261Z,72.88
2023-04-03T05:15:28.266Z,73.31
2023-04-03T05:17:56.531Z,74.27
2023-04-03T05:20:25.572Z,74.05
2023-04-03T05:22:53.881Z,74.25
2023-04-03T05:25:21.960Z,74.69
2023-04-03T05:27:50.453Z,75.03
2023-04-03T05:30:19.492Z,75.48
2023-04-03T05:32:49.393Z,75.72
2023-04-03T05:35:18.315Z,74.48
2023-04-03T05:37:46.657Z,74.90
2023-04-03T05:40:16.321Z,73.48
2023-04-03T05:42:46.299Z,73.13
2023-04-03T05:45:14.531Z,72.82
2023-04-03T05:47:43.606Z,72.64
2023-04-03T05:50:13.630Z,72.05
2023-04-03T05:52:46.490Z,72.63
2023-04-03T05:55:14.941Z,71.01
2023-04-03T05:57:43.142Z,71.03
2023-04-03T06:00:16.602Z,70.70
2023-04-03T06:02:45.303Z,67.51
2023-04-03T06:05:16.169Z,67.29
2023-04-03T06:07:45.648Z,65.48
2023-04-03T06:10:15.396Z,64.90
2023-04-03T06:12:44.182Z,63.68
2023-04-03T06:15:12.905Z,62.63
2023-04-03T06:17:41.226Z,61.77
2023-04-03T06:20:10.571Z,61.61
2023-04-03T06:22:42.977Z,61.26
2023-04-03T06:25:12.000Z,59.92
2023-04-03T06:27:40.706Z,60.19
2023-04-03T06:30:10.208Z,60.36
2023-04-03T06:32:40.802Z,59.62
2023-04-03T06:35:10.190Z,59.70
2023-04-03T06:37:40.117Z,60.45
2023-04-03T06:40:13.727Z,59.76
2023-04-03T06:42:42.063Z,58.92
2023-04-03T06:45:13.132Z,59.06
2023-04-03T06:47:41.516Z,57.82
2023-04-03T06:50:12.874Z,56.66
2023-04-03T06:52:42.799Z,57.38
2023-04-03T06:55:11.756Z,57.01
2023-04-03T06:57:40.382Z,55.40
2023-04-03T07:00:10.343Z,56.54
2023-04-03T07:02:38.871Z,56.54
2023-04-03T07:05:08.335Z,56.17
2023-04-03T07:07:36.944Z,55.70
2023-04-03T07:10:08.547Z,56.45
2023-04-03T07:12:37.008Z,56.53
2023-04-03T07:15:06.084Z,55.76
2023-04-03T07:17:34.524Z,55.77
2023-04-03T07:20:02.863Z,55.68
2023-04-03T07:22:31.285Z,54.94
2023-04-03T07:25:00.274Z,53.63
2023-04-03T07:27:30.568Z,53.47
2023-04-03T07:30:00.074Z,54.00
2023-04-03T07:32:28.446Z,53.23
2023-04-03T07:34:56.733Z,53.56
2023-04-03T07:37:24.946Z,54.76
2023-04-03T07:39:53.375Z,55.31
2023-04-03T07:42:21.613Z,55.01
2023-04-03T07:44:51.131Z,54.38
2023-04-03T07:47:19.497Z,54.36
2023-04-03T07:49:48.192Z,53.57
2023-04-03T07:52:18.682Z,53.57
2023-04-03T07:54:47.101Z,51.83
2023-04-03T07:57:15.585Z,50.92
2023-04-03T07:59:44.303Z,50.79
2023-04-03T08:02:14.875Z,50.80
2023-04-03T08:04:43.986Z,50.20
2023-04-03T08:07:12.399Z,49.82
2023-04-03T08:09:41.559Z,50.58
2023-04-03T08:12:12.348Z,50.11
2023-04-03T08:14:41.328Z,49.58
2023-04-03T08:17:12.678Z,49.21
2023-04-03T08:19:43.024Z,49.38
2023-04-03T08:22:11.897Z,48.94
2023-04-03T08:24:45.725Z,48.10
2023-04-03T08:27:20.898Z,47.80
2023-04-03T08:29:49.372Z,47.61
2023-04-03T08:32:17.850Z,48.40
2023-04-03T08:34:47.751Z,48.83
2023-04-03T08:37:17.934Z,50.25
2023-04-03T08:39:46.452Z,50.97
2023-04-03T08:42:21.747Z,51.49
2023-04-03T08:44:58.383Z,51.37
2023-04-03T08:47:32.545Z,51.24
2023-04-03T08:50:05.130Z,51.13
2023-04-03T08:52:39.282Z,51.18
2023-04-03T08:55:15.957Z,50.68
2023-04-03T08:57:47.820Z,51.23
2023-04-03T09:00:21.591Z,52.36
2023-04-03T09:02:51.714Z,51.60
2023-04-03T09:05:31.471Z,52.70
2023-04-03T09:08:07.256Z,51.97
2023-04-03T09:10:39.998Z,51.81
2023-04-03T09:13:13.778Z,51.90
2023-04-03T09:15:43.236Z,52.83
2023-04-03T09:18:17.878Z,53.83
2023-04-03T09:20:56.234Z,54.35
2023-04-03T09:23:30.921Z,53.93
2023-04-03T09:26:06.157Z,54.27
2023-04-03T09:28:49.259Z,54.12
2023-04-03T09:31:24.991Z,54.02
2023-04-03T09:33:57.953Z,53.66
2023-04-03T09:36:46.005Z,53.12
2023-04-03T09:39:17.587Z,52.87
2023-04-03T09:41:59.551Z,52.67
2023-04-03T09:44:31.010Z,52.24
2023-04-03T09:46:59.794Z,52.46
2023-04-03T09:49:28.025Z,53.29
2023-04-03T09:51:57.671Z,54.29
2023-04-03T09:54:42.216Z,56.69
2023-04-03T09:57:15.581Z,59.34
2023-04-03T09:59:48.619Z,61.14
2023-04-03T10:02:37.110Z,63.08
2023-04-03T10:05:09.851Z,63.06
2023-04-03T10:07:44.444Z,63.01
2023-04-03T10:10:25.024Z,64.76
2023-04-03T10:13:06.899Z,65.66
2023-04-03T10:15:42.926Z,65.94
2023-04-03T10:18:29.738Z,66.84
2023-04-03T10:21:06.146Z,67.67
2023-04-03T10:23:44.916Z,67.99
2023-04-03T10:26:27.315Z,67.70
2023-04-03T10:29:05.735Z,68.06
2023-04-03T10:31:39.691Z,69.74
2023-04-03T10:34:17.989Z,70.63
2023-04-03T10:36:54.036Z,70.82
2023-04-03T10:39:31.999Z,69.70
2023-04-03T10:42:16.511Z,69.94
2023-04-03T10:45:03.556Z,70.71
2023-04-03T10:47:39.680Z,70.92
2023-04-03T10:50:27.708Z,71.35
2023-04-03T10:53:03.695Z,72.66
2023-04-03T10:55:40.405Z,71.87
2023-04-03T10:58:17.225Z,73.37
2023-04-03T11:00:49.809Z,76.64
2023-04-03T11:03:27.594Z,77.03
2023-04-03T11:05:58.429Z,75.70
2023-04-03T11:08:31.550Z,78.18
2023-04-03T11:11:05.501Z,79.36
2023-04-03T11:13:38.585Z,82.26
2023-04-03T11:16:07.650Z,81.03
2023-04-03T11:18:43.539Z,81.00
2023-04-03T11:21:17.980Z,84.00
2023-04-03T11:23:50.109Z,85.33
2023-04-03T11:26:22.879Z,88.42
2023-04-03T11:28:57.506Z,90.29
2023-04-03T11:31:40.568Z,92.91
2023-04-03T11:34:23.281Z,95.13
2023-04-03T11:36:56.362Z,96.64
2023-04-03T11:39:28.479Z,93.80
2023-04-03T11:42:15.680Z,89.86
2023-04-03T11:44:45.729Z,90.23
2023-04-03T11:47:34.953Z,91.15
2023-04-03T11:50:06.350Z,92.31
2023-04-03T11:52:59.402Z,94.17
2023-04-03T11:55:48.079Z,96.46
2023-04-03T11:58:19.854Z,100.00
2023-04-03T12:01:07.300Z,100.00
2023-04-03T12:03:55.417Z,100.00
2023-04-03T12:07:02.213Z,100.00
2023-04-03T12:09:36.001Z,100.00
2023-04-03T12:12:29.255Z,100.00
2023-04-03T12:15:15.046Z,100.00
2023-04-03T12:17:43.604Z,100.00
2023-04-03T12:20:44.785Z,100.00
2023-04-03T12:23:27.789Z,100.00
2023-04-03T12:26:04.728Z,100.00
2023-04-03T12:28:40.885Z,100.00
2023-04-03T12:31:12.298Z,100.00
2023-04-03T12:34:00.878Z,100.00
2023-04-03T12:36:40.625Z,100.00
2023-04-03T12:39:36.176Z,100.00
2023-04-03T12:42:20.770Z,100.00
2023-04-03T12:44:57.934Z,100.00
2023-04-03T12:47:34.090Z,100.00
2023-04-03T12:50:05.212Z,100.00
2023-04-03T12:52:39.321Z,100.00
2023-04-03T12:55:18.459Z,100.00
2023-04-03T12:57:47.309Z,100.00
2023-04-03T13:00:31.765Z,100.00
2023-04-03T13:03:02.727Z,100.00
2023-04-03T13:05:33.022Z,100.00
2023-04-03T13:08:06.204Z,100.00
2023-04-03T13:10:47.504Z,100.00
2023-04-03T13:13:19.315Z,100.00
2023-04-03T13:15:51.527Z,100.00
2023-04-03T13:18:31.016Z,100.00
2023-04-03T13:21:04.217Z,100.00
2023-04-03T13:23:33.590Z,100.00
2023-04-03T13:26:04.637Z,100.00
2023-04-03T13:28:35.452Z,100.00
2023-04-03T13:31:11.882Z,100.00
2023-04-03T13:33:46.734Z,100.00
2023-04-03T13:36:20.750Z,100.00
2023-04-03T13:38:59.743Z,100.00
2023-04-03T13:41:32.535Z,100.00
2023-04-03T13:44:28.994Z,100.00
2023-04-03T13:46:58.949Z,100.00
2023-04-03T13:49:35.220Z,100.00
2023-04-03T13:52:08.035Z,100.00
2023-04-03T13:54:39.434Z,100.00
2023-04-03T13:57:17.747Z,100.00
2023-04-03T13:59:46.711Z,100.00
2023-04-03T14:02:21.830Z,100.00
2023-04-03T14:04:58.215Z,100.00
2023-04-03T14:07:28.140Z,100.00
2023-04-03T14:09:57.619Z,100.00
2023-04-03T14:12:32.748Z,100.00
2023-04-03T14:15:02.908Z,100.00
2023-04-03T14:17:31.344Z,100.00
2023-04-03T14:20:02.842Z,100.00
2023-04-03T14:22:38.475Z,100.00
2023-04-03T14:25:07.462Z,100.00
2023-04-03T14:27:40.732Z,100.00
2023-04-03T14:30:15.056Z,100.00
2023-04-03T14:32:43.570Z,100.00
2023-04-03T14:35:13.363Z,100.00
2023-04-03T14:37:43.846Z,100.00
2023-04-03T14:40:17.376Z,100.00
2023-04-03T14:42:45.976Z,100.00
2023-04-03T14:45:15.175Z,100.00
2023-04-03T14:47:50.441Z,100.00
2023-04-03T14:50:22.861Z,100.00
2023-04-03T14:52:55.964Z,100.00
2023-04-03T14:55:28.070Z,100.00
2023-04-03T14:57:57.774Z,100.00
2023-04-03T15:00:26.929Z,100.00
2023-04-03T15:02:58.362Z,100.00
2023-04-03T15:05:28.335Z,100.00
2023-04-03T15:07:58.495Z,100.00
2023-04-03T15:10:29.005Z,100.00
2023-04-03T15:12:58.674Z,100.00
2023-04-03T15:15:30.593Z,100.00
2023-04-03T15:17:59.964Z,100.00
2023-04-03T15:20:31.799Z,100.00
2023-04-03T15:23:01.920Z,100.00
2023-04-03T15:25:31.273Z,100.00
2023-04-03T15:28:00.872Z,100.00
2023-04-03T15:30:29.232Z,100.00
2023-04-03T15:32:58.090Z,100.00
2023-04-03T15:35:26.746Z,100.00
2023-04-03T15:37:56.463Z,100.00
2023-04-03T15:40:24.822Z,100.00
2023-04-03T15:42:54.478Z,100.00
2023-04-03T15:45:23.446Z,100.00
2023-04-03T15:47:53.028Z,100.00
2023-04-03T15:50:23.399Z,100.00
2023-04-03T15:52:55.340Z,100.00
2023-04-03T15:55:25.950Z,100.00
2023-04-03T15:57:54.556Z,100.00
2023-04-03T16:00:23.620Z,100.00
2023-04-03T16:02:55.209Z,100.00
2023-04-03T16:05:24.652Z,100.00
2023-04-03T16:07:54.893Z,100.00
2023-04-03T16:10:24.998Z,100.00
2023-04-03T16:12:53.357Z,100.00
2023-04-03T16:15:21.940Z,100.00
2023-04-03T16:17:52.266Z,100.00
2023-04-03T16:20:22.908Z,100.00
2023-04-03T16:22:51.621Z,100.00
2023-04-03T16:25:20.420Z,100.00
2023-04-03T16:27:50.131Z,100.00
2023-04-03T16:30:18.868Z,100.00
2023-04-03T16:32:48.133Z,100.00
2023-04-03T16:35:18.233Z,100.00
2023-04-03T16:37:46.612Z,100.00
2023-04-03T16:40:15.137Z,100.00
2023-04-03T16:42:45.232Z,100.00
2023-04-03T16:45:15.108Z,100.00
2023-04-03T16:47:43.939Z,100.00
2023-04-03T16:50:14.769Z,100.00
2023-04-03T16:52:43.170Z,100.00
2023-04-03T16:55:11.738Z,100.00
2023-04-03T16:57:40.132Z,100.00
2023-04-03T17:00:12.607Z,100.00
2023-04-03T17:02:42.949Z,100.00
2023-04-03T17:05:12.130Z,100.00
2023-04-03T17:07:40.516Z,100.00
2023-04-03T17:10:10.880Z,100.00
2023-04-03T17:12:39.533Z,100.00
2023-04-03T17:15:09.204Z,100.00
2023-04-03T17:17:38.058Z,100.00
2023-04-03T17:20:09.886Z,100.00
2023-04-03T17:22:39.424Z,100.00
2023-04-03T17:25:08.464Z,100.00
2023-04-03T17:27:42.617Z,100.00
2023-04-03T17:30:11.691Z,100.00
2023-04-03T17:32:40.016Z,100.00
2023-04-03T17:35:11.707Z,100.00
2023-04-03T17:37:40.698Z,100.00
2023-04-03T17:40:14.523Z,100.00
2023-04-03T17:42:42.868Z,100.00
2023-04-03T17:45:14.046Z,100.00
2023-04-03T17:47:43.572Z,100.00
2023-04-03T17:50:16.259Z,100.00
2023-04-03T17:52:44.725Z,100.00
2023-04-03T17:55:17.820Z,100.00
2023-04-03T17:57:49.025Z,100.00
2023-04-03T18:00:18.899Z,100.00
2023-04-03T18:02:49.747Z,100.00
2023-04-03T18:05:23.386Z,100.00
2023-04-03T18:07:54.828Z,100.00
2023-04-03T18:10:23.474Z,100.00
2023-04-03T18:12:55.045Z,100.00
2023-04-03T18:15:23.586Z,100.00
2023-04-03T18:17:56.852Z,100.00
2023-04-03T18:20:26.811Z,100.00
2023-04-03T18:22:55.628Z,100.00
2023-04-03T18:25:23.998Z,100.00
2023-04-03T18:27:53.375Z,100.00
2023-04-03T18:30:22.706Z,100.00
2023-04-03T18:32:51.236Z,100.00
2023-04-03T18:35:19.834Z,100.00
2023-04-03T18:37:49.536Z,100.00
2023-04-03T18:40:18.062Z,100.00
2023-04-03T18:42:46.713Z,100.00
2023-04-03T18:45:22.969Z,100.00
2023-04-03T18:47:51.492Z,100.00
2023-04-03T18:50:20.562Z,100.00
2023-04-03T18:52:50.882Z,100.00
2023-04-03T18:55:20.506Z,100.00
2023-04-03T18:57:49.702Z,100.00
2023-04-03T19:00:19.968Z,100.00
2023-04-03T19:02:48.601Z,100.00
2023-04-03T19:05:19.930Z,100.00
2023-04-03T19:07:51.976Z,100.00
2023-04-03T19:10:20.357Z,100.00
2023-04-03T19:12:50.430Z,100.00
2023-04-03T19:15:21.323Z,100.00
2023-04-03T19:17:50.203Z,100.00
2023-04-03T19:20:18.635Z,100.00
2023-04-03T19:22:47.426Z,100.00
2023-04-03T19:25:17.900Z,100.00
2023-04-03T19:27:46.009Z,100.00
2023-04-03T19:30:15.576Z,100.00
2023-04-03T19:32:45.274Z,100.00
2023-04-03T19:35:13.909Z,100.00
2023-04-03T19:37:42.762Z,100.00
2023-04-03T19:40:12.098Z,100.00
2023-04-03T19:42:43.091Z,100.00
2023-04-03T19:45:15.005Z,100.00
2023-04-03T19:47:43.632Z,100.00
2023-04-03T19:50:12.868Z,100.00
2023-04-03T19:52:41.233Z,100.00
2023-04-03T19:55:11.125Z,100.00
2023-04-03T19:57:39.421Z,100.00
2023-04-03T20:00:11.372Z,100.00
2023-04-03T20:02:40.888Z,100.00
2023-04-03T20:05:11.182Z,100.00
2023-04-03T20:07:39.955Z,100.00
2023-04-03T20:10:08.739Z,100.00
2023-04-03T20:12:38.258Z,100.00
2023-04-03T20:15:09.357Z,100.00
2023-04-03T20:17:38.213Z,100.00
2023-04-03T20:20:08.147Z,100.00
2023-04-03T20:22:38.068Z,100.00
2023-04-03T20:25:07.529Z,100.00
2023-04-03T20:27:36.416Z,100.00
2023-04-03T20:30:14.686Z,100.00
2023-04-03T20:32:48.742Z,100.00
2023-04-03T20:35:22.550Z,100.00
2023-04-03T20:37:50.834Z,100.00
2023-04-03T20:40:19.289Z,100.00
2023-04-03T20:42:47.520Z,100.00
2023-04-03T20:45:17.359Z,100.00
2023-04-03T20:47:46.038Z,100.00
2023-04-03T20:50:14.283Z,100.00
2023-04-03T20:52:43.025Z,100.00
2023-04-03T20:55:11.524Z,100.00
2023-04-03T20:57:39.993Z,100.00
2023-04-03T21:00:09.811Z,100.00
2023-04-03T21:02:39.674Z,100.00
2023-04-03T21:05:10.137Z,100.00
2023-04-03T21:08:16.506Z,100.00
2023-04-03T21:11:23.972Z,100.00
2023-04-03T21:14:30.982Z,100.00
2023-04-03T21:16:59.219Z,100.00
2023-04-03T21:19:30.092Z,100.00
2023-04-03T21:22:01.138Z,100.00
2023-04-03T21:24:31.555Z,100.00
2023-04-03T21:27:00.264Z,100.00
2023-04-03T21:29:29.003Z,100.00
2023-04-03T21:31:58.292Z,100.00
2023-04-03T21:34:29.772Z,100.00
2023-04-03T21:37:02.017Z,100.00
2023-04-03T21:39:30.764Z,100.00
2023-04-03T21:41:59.524Z,100.00
2023-04-03T21:44:28.556Z,100.00
2023-04-03T21:46:57.214Z,100.00
2023-04-03T21:49:27.221Z,100.00
2023-04-03T21:51:57.647Z,100.00
2023-04-03T21:54:26.105Z,100.00
2023-04-03T21:56:54.381Z,100.00
2023-04-03T21:59:23.276Z,100.00
2023-04-03T22:01:51.648Z,100.00
2023-04-03T22:04:19.984Z,100.00
2023-04-03T22:06:48.164Z,100.00
2023-04-03T22:09:17.834Z,100.00
2023-04-03T22:11:46.314Z,100.00
2023-04-03T22:14:14.536Z,100.00
2023-04-03T22:16:47.189Z,100.00
2023-04-03T22:19:15.565Z,100.00
2023-04-03T22:21:43.926Z,100.00
2023-04-03T22:24:12.382Z,100.00
2023-04-03T22:26:44.419Z,100.00
2023-04-03T22:29:13.443Z,100.00
2023-04-03T22:31:42.442Z,100.00
2023-04-03T22:34:11.918Z,100.00
2023-04-03T22:36:43.300Z,100.00
2023-04-03T22:39:13.775Z,100.00
2023-04-03T22:41:45.637Z,100.00
2023-04-03T22:44:15.162Z,100.00
2023-04-03T22:46:44.876Z,100.00
2023-04-03T22:49:14.011Z,100.00
2023-04-03T22:51:42.575Z,100.00
2023-04-03T22:54:11.347Z,100.00
2023-04-03T22:56:39.798Z,100.00
2023-04-03T22:59:10.679Z,100.00
2023-04-03T23:01:40.276Z,100.00
2023-04-03T23:04:08.742Z,100.00
2023-04-03T23:06:37.000Z,100.00
2023-04-03T23:09:05.207Z,100.00
2023-04-03T23:11:33.404Z,100.00
2023-04-03T23:14:03.194Z,100.00
2023-04-03T23:16:33.062Z,100.00
2023-04-03T23:19:01.489Z,100.00
2023-04-03T23:21:29.697Z,100.00
2023-04-03T23:23:58.129Z,100.00
2023-04-03T23:26:26.535Z,100.00
2023-04-03T23:28:54.690Z,100.00
2023-04-03T23:31:22.807Z,100.00
2023-04-03T23:33:53.311Z,100.00
2023-04-03T23:36:21.582Z,100.00
2023-04-03T23:38:51.103Z,100.00
2023-04-03T23:41:19.531Z,100.00
2023-04-03T23:43:47.747Z,100.00
2023-04-03T23:46:16.689Z,100.00
2023-04-03T23:48:44.975Z,100.00
2023-04-03T23:51:14.639Z,100.00
2023-04-03T23:53:42.801Z,100.00
2023-04-03T23:56:13.756Z,100.00
2023-04-03T23:58:42.001Z,100.00
